sensor_id;sensor_type;location;lat;lon;timestamp;pressure;altitude;pressure_sealevel;temperature;humidity
10127;BME280;13080;42.608;23.362;2022-10-31T00:01:25;93197.94;;;11.68;64.20
10127;BME280;13080;42.608;23.362;2022-10-31T00:03:52;93199.97;;;11.50;64.84
10127;BME280;13080;42.608;23.362;2022-10-31T00:06:19;93194.34;;;11.42;65.28
10127;BME280;13080;42.608;23.362;2022-10-31T00:08:46;93195.38;;;11.29;65.42
10127;BME280;13080;42.608;23.362;2022-10-31T00:11:24;93183.16;;;11.28;65.36
10127;BME280;13080;42.608;23.362;2022-10-31T00:13:52;93184.25;;;11.27;65.70
10127;BME280;13080;42.608;23.362;2022-10-31T00:16:20;93192.44;;;11.22;65.71
10127;BME280;13080;42.608;23.362;2022-10-31T00:18:50;93194.47;;;11.25;66.06
10127;BME280;13080;42.608;23.362;2022-10-31T00:21:17;93200.19;;;11.15;66.36
10127;BME280;13080;42.608;23.362;2022-10-31T00:23:44;93192.59;;;11.26;66.52
10127;BME280;13080;42.608;23.362;2022-10-31T00:26:11;93192.72;;;11.29;66.33
10127;BME280;13080;42.608;23.362;2022-10-31T00:28:38;93202.56;;;11.37;66.48
10127;BME280;13080;42.608;23.362;2022-10-31T00:31:06;93201.06;;;11.49;66.16
10127;BME280;13080;42.608;23.362;2022-10-31T00:33:34;93198.91;;;11.42;66.04
10127;BME280;13080;42.608;23.362;2022-10-31T00:36:04;93202.63;;;11.50;66.05
10127;BME280;13080;42.608;23.362;2022-10-31T00:38:31;93206.63;;;11.43;65.98
10127;BME280;13080;42.608;23.362;2022-10-31T00:40:58;93200.81;;;11.41;66.18
10127;BME280;13080;42.608;23.362;2022-10-31T00:43:25;93189.31;;;11.41;66.38
10127;BME280;13080;42.608;23.362;2022-10-31T00:45:51;93195.00;;;11.39;66.62
10127;BME280;13080;42.608;23.362;2022-10-31T00:48:18;93188.44;;;11.37;66.60
10127;BME280;13080;42.608;23.362;2022-10-31T00:50:45;93185.16;;;11.31;67.01
10127;BME280;13080;42.608;23.362;2022-10-31T00:53:13;93188.59;;;11.32;66.97
10127;BME280;13080;42.608;23.362;2022-10-31T00:55:40;93186.06;;;11.35;66.85
10127;BME280;13080;42.608;23.362;2022-10-31T00:58:06;93196.09;;;11.38;66.82
10127;BME280;13080;42.608;23.362;2022-10-31T01:00:33;93190.31;;;11.36;67.18
10127;BME280;13080;42.608;23.362;2022-10-31T01:03:00;93181.41;;;11.32;67.33
10127;BME280;13080;42.608;23.362;2022-10-31T01:05:27;93189.84;;;11.34;67.40
10127;BME280;13080;42.608;23.362;2022-10-31T01:07:56;93189.06;;;11.34;67.30
10127;BME280;13080;42.608;23.362;2022-10-31T01:10:24;93184.84;;;11.33;67.37
10127;BME280;13080;42.608;23.362;2022-10-31T01:12:51;93195.66;;;11.36;67.22
10127;BME280;13080;42.608;23.362;2022-10-31T01:15:20;93192.34;;;11.39;67.41
10127;BME280;13080;42.608;23.362;2022-10-31T01:17:47;93197.22;;;11.37;67.46
10127;BME280;13080;42.608;23.362;2022-10-31T01:20:15;93191.69;;;11.42;67.28
10127;BME280;13080;42.608;23.362;2022-10-31T01:22:42;93200.81;;;11.41;67.07
10127;BME280;13080;42.608;23.362;2022-10-31T01:25:09;93197.22;;;11.37;67.35
10127;BME280;13080;42.608;23.362;2022-10-31T01:27:37;93204.63;;;11.32;67.81
10127;BME280;13080;42.608;23.362;2022-10-31T01:30:05;93205.97;;;11.26;68.00
10127;BME280;13080;42.608;23.362;2022-10-31T01:32:32;93204.22;;;11.21;68.04
10127;BME280;13080;42.608;23.362;2022-10-31T01:34:59;93201.13;;;11.19;68.45
10127;BME280;13080;42.608;23.362;2022-10-31T01:37:25;93202.47;;;11.25;68.33
10127;BME280;13080;42.608;23.362;2022-10-31T01:39:52;93199.50;;;11.27;68.56
10127;BME280;13080;42.608;23.362;2022-10-31T01:42:21;93201.19;;;11.31;68.40
10127;BME280;13080;42.608;23.362;2022-10-31T01:44:53;93210.44;;;11.34;68.27
10127;BME280;13080;42.608;23.362;2022-10-31T01:47:26;93210.25;;;11.39;68.13
10127;BME280;13080;42.608;23.362;2022-10-31T01:49:58;93202.44;;;11.34;68.52
10127;BME280;13080;42.608;23.362;2022-10-31T01:52:30;93207.50;;;11.48;67.97
10127;BME280;13080;42.608;23.362;2022-10-31T01:54:59;93211.63;;;11.45;68.04
10127;BME280;13080;42.608;23.362;2022-10-31T01:57:29;93216.84;;;11.62;68.04
10127;BME280;13080;42.608;23.362;2022-10-31T02:00:04;93213.41;;;11.62;67.76
10127;BME280;13080;42.608;23.362;2022-10-31T02:02:31;93200.50;;;11.64;67.95
10127;BME280;13080;42.608;23.362;2022-10-31T02:05:00;93202.63;;;11.71;67.93
10127;BME280;13080;42.608;23.362;2022-10-31T02:07:33;93197.94;;;11.68;68.03
10127;BME280;13080;42.608;23.362;2022-10-31T02:10:04;93202.28;;;11.72;67.82
10127;BME280;13080;42.608;23.362;2022-10-31T02:12:31;93207.19;;;11.70;68.24
10127;BME280;13080;42.608;23.362;2022-10-31T02:15:00;93196.41;;;11.79;67.96
10127;BME280;13080;42.608;23.362;2022-10-31T02:17:28;93192.50;;;11.76;68.18
10127;BME280;13080;42.608;23.362;2022-10-31T02:20:03;93201.31;;;11.77;68.12
10127;BME280;13080;42.608;23.362;2022-10-31T02:22:37;93198.97;;;11.75;68.25
10127;BME280;13080;42.608;23.362;2022-10-31T02:25:22;93206.19;;;11.75;68.38
10127;BME280;13080;42.608;23.362;2022-10-31T02:28:26;93205.31;;;11.71;68.71
10127;BME280;13080;42.608;23.362;2022-10-31T02:31:17;93210.97;;;11.69;68.70
10127;BME280;13080;42.608;23.362;2022-10-31T02:33:51;93217.44;;;11.68;68.90
10127;BME280;13080;42.608;23.362;2022-10-31T02:36:22;93221.88;;;11.64;68.45
10127;BME280;13080;42.608;23.362;2022-10-31T02:39:11;93223.69;;;11.72;68.35
10127;BME280;13080;42.608;23.362;2022-10-31T02:41:46;93227.59;;;11.75;68.08
10127;BME280;13080;42.608;23.362;2022-10-31T02:44:18;93225.97;;;11.82;68.14
10127;BME280;13080;42.608;23.362;2022-10-31T02:46:53;93231.63;;;11.81;68.27
10127;BME280;13080;42.608;23.362;2022-10-31T02:49:26;93233.84;;;11.79;68.62
10127;BME280;13080;42.608;23.362;2022-10-31T02:51:53;93230.72;;;11.77;68.82
10127;BME280;13080;42.608;23.362;2022-10-31T02:54:22;93233.75;;;11.75;69.52
10127;BME280;13080;42.608;23.362;2022-10-31T02:56:53;93230.81;;;11.68;69.74
10127;BME280;13080;42.608;23.362;2022-10-31T02:59:22;93230.16;;;11.71;69.23
10127;BME280;13080;42.608;23.362;2022-10-31T03:02:11;93234.06;;;11.74;69.35
10127;BME280;13080;42.608;23.362;2022-10-31T03:04:59;93230.16;;;11.71;69.24
10127;BME280;13080;42.608;23.362;2022-10-31T03:07:36;93229.56;;;11.65;69.39
10127;BME280;13080;42.608;23.362;2022-10-31T03:10:12;93230.59;;;11.73;69.69
10127;BME280;13080;42.608;23.362;2022-10-31T03:12:49;93238.38;;;11.66;69.58
10127;BME280;13080;42.608;23.362;2022-10-31T03:15:21;93234.91;;;11.65;69.61
10127;BME280;13080;42.608;23.362;2022-10-31T03:17:54;93229.91;;;11.64;69.75
10127;BME280;13080;42.608;23.362;2022-10-31T03:20:27;93223.88;;;11.67;69.56
10127;BME280;13080;42.608;23.362;2022-10-31T03:22:57;93228.78;;;11.65;69.94
10127;BME280;13080;42.608;23.362;2022-10-31T03:25:26;93233.81;;;11.67;69.66
10127;BME280;13080;42.608;23.362;2022-10-31T03:27:53;93233.66;;;11.63;70.59
10127;BME280;13080;42.608;23.362;2022-10-31T03:30:21;93232.88;;;11.62;70.12
10127;BME280;13080;42.608;23.362;2022-10-31T03:32:53;93232.38;;;11.69;70.05
10127;BME280;13080;42.608;23.362;2022-10-31T03:35:23;93234.72;;;11.71;69.89
10127;BME280;13080;42.608;23.362;2022-10-31T03:37:52;93243.06;;;11.69;69.90
10127;BME280;13080;42.608;23.362;2022-10-31T03:40:21;93239.94;;;11.67;70.04
10127;BME280;13080;42.608;23.362;2022-10-31T03:42:54;93239.09;;;11.75;69.80
10127;BME280;13080;42.608;23.362;2022-10-31T03:45:24;93250.09;;;11.74;69.76
10127;BME280;13080;42.608;23.362;2022-10-31T03:47:54;93243.97;;;11.73;69.63
10127;BME280;13080;42.608;23.362;2022-10-31T03:50:23;93256.03;;;11.79;69.58
10127;BME280;13080;42.608;23.362;2022-10-31T03:52:55;93249.06;;;11.87;69.06
10127;BME280;13080;42.608;23.362;2022-10-31T03:55:28;93246.25;;;11.83;69.21
10127;BME280;13080;42.608;23.362;2022-10-31T03:57:59;93257.41;;;11.85;69.04
10127;BME280;13080;42.608;23.362;2022-10-31T04:00:27;93263.88;;;11.84;69.22
10127;BME280;13080;42.608;23.362;2022-10-31T04:02:58;93260.28;;;11.80;69.29
10127;BME280;13080;42.608;23.362;2022-10-31T04:05:27;93256.56;;;11.73;69.47
10127;BME280;13080;42.608;23.362;2022-10-31T04:07:57;93272.16;;;11.71;69.61
10127;BME280;13080;42.608;23.362;2022-10-31T04:10:26;93261.31;;;11.67;69.83
10127;BME280;13080;42.608;23.362;2022-10-31T04:12:57;93266.41;;;11.60;69.97
10127;BME280;13080;42.608;23.362;2022-10-31T04:15:27;93257.16;;;11.57;70.05
10127;BME280;13080;42.608;23.362;2022-10-31T04:17:58;93268.09;;;11.64;70.45
10127;BME280;13080;42.608;23.362;2022-10-31T04:20:30;93267.69;;;11.54;70.83
10127;BME280;13080;42.608;23.362;2022-10-31T04:22:57;93264.75;;;11.47;70.71
10127;BME280;13080;42.608;23.362;2022-10-31T04:25:24;93274.38;;;11.39;71.39
10127;BME280;13080;42.608;23.362;2022-10-31T04:27:50;93271.69;;;11.39;71.75
10127;BME280;13080;42.608;23.362;2022-10-31T04:30:17;93270.59;;;11.40;71.67
10127;BME280;13080;42.608;23.362;2022-10-31T04:32:44;93266.69;;;11.37;72.02
10127;BME280;13080;42.608;23.362;2022-10-31T04:35:12;93268.59;;;11.37;72.42
10127;BME280;13080;42.608;23.362;2022-10-31T04:37:39;93269.56;;;11.32;72.84
10127;BME280;13080;42.608;23.362;2022-10-31T04:40:07;93272.16;;;11.41;72.56
10127;BME280;13080;42.608;23.362;2022-10-31T04:42:34;93276.59;;;11.37;72.47
10127;BME280;13080;42.608;23.362;2022-10-31T04:45:00;93281.16;;;11.36;72.88
10127;BME280;13080;42.608;23.362;2022-10-31T04:47:27;93278.00;;;11.34;72.93
10127;BME280;13080;42.608;23.362;2022-10-31T04:49:54;93280.56;;;11.31;73.26
10127;BME280;13080;42.608;23.362;2022-10-31T04:52:22;93279.78;;;11.30;72.96
10127;BME280;13080;42.608;23.362;2022-10-31T04:54:48;93277.13;;;11.30;73.54
10127;BME280;13080;42.608;23.362;2022-10-31T04:57:15;93278.16;;;11.38;73.64
10127;BME280;13080;42.608;23.362;2022-10-31T04:59:42;93281.03;;;11.33;72.91
10127;BME280;13080;42.608;23.362;2022-10-31T05:02:09;93284.94;;;11.35;74.73
10127;BME280;13080;42.608;23.362;2022-10-31T05:04:35;93281.50;;;11.35;74.57
10127;BME280;13080;42.608;23.362;2022-10-31T05:07:02;93287.72;;;11.39;73.93
10127;BME280;13080;42.608;23.362;2022-10-31T05:09:30;93295.31;;;11.37;73.51
10127;BME280;13080;42.608;23.362;2022-10-31T05:11:57;93294.50;;;11.36;72.89
10127;BME280;13080;42.608;23.362;2022-10-31T05:14:24;93291.06;;;11.36;72.60
10127;BME280;13080;42.608;23.362;2022-10-31T05:16:50;93294.34;;;11.41;72.75
10127;BME280;13080;42.608;23.362;2022-10-31T05:19:17;93294.59;;;11.49;72.88
10127;BME280;13080;42.608;23.362;2022-10-31T05:21:44;93296.50;;;11.48;73.23
10127;BME280;13080;42.608;23.362;2022-10-31T05:24:10;93293.50;;;11.50;73.19
10127;BME280;13080;42.608;23.362;2022-10-31T05:26:39;93295.06;;;11.51;72.80
10127;BME280;13080;42.608;23.362;2022-10-31T05:29:05;93303.22;;;11.54;73.96
10127;BME280;13080;42.608;23.362;2022-10-31T05:31:32;93302.31;;;11.50;72.93
10127;BME280;13080;42.608;23.362;2022-10-31T05:33:59;93313.44;;;11.52;72.95
10127;BME280;13080;42.608;23.362;2022-10-31T05:36:25;93311.38;;;11.58;72.82
10127;BME280;13080;42.608;23.362;2022-10-31T05:38:52;93315.28;;;11.60;72.21
10127;BME280;13080;42.608;23.362;2022-10-31T05:41:19;93312.31;;;11.62;72.11
10127;BME280;13080;42.608;23.362;2022-10-31T05:43:47;93316.88;;;11.61;72.86
10127;BME280;13080;42.608;23.362;2022-10-31T05:46:14;93315.56;;;11.68;72.69
10127;BME280;13080;42.608;23.362;2022-10-31T05:48:40;93322.06;;;11.58;72.94
10127;BME280;13080;42.608;23.362;2022-10-31T05:51:07;93327.16;;;11.51;73.09
10127;BME280;13080;42.608;23.362;2022-10-31T05:53:34;93325.44;;;11.46;73.56
10127;BME280;13080;42.608;23.362;2022-10-31T05:56:01;93318.41;;;11.41;73.58
10127;BME280;13080;42.608;23.362;2022-10-31T05:58:27;93325.03;;;11.35;74.07
10127;BME280;13080;42.608;23.362;2022-10-31T06:00:55;93327.88;;;11.30;74.37
10127;BME280;13080;42.608;23.362;2022-10-31T06:03:22;93318.59;;;11.28;74.89
10127;BME280;13080;42.608;23.362;2022-10-31T06:05:49;93334.19;;;11.26;74.70
10127;BME280;13080;42.608;23.362;2022-10-31T06:08:15;93331.81;;;11.24;74.69
10127;BME280;13080;42.608;23.362;2022-10-31T06:10:42;93339.84;;;11.24;75.13
10127;BME280;13080;42.608;23.362;2022-10-31T06:13:09;93343.59;;;11.23;74.82
10127;BME280;13080;42.608;23.362;2022-10-31T06:15:36;93337.63;;;11.26;75.01
10127;BME280;13080;42.608;23.362;2022-10-31T06:18:04;93338.88;;;11.29;74.91
10127;BME280;13080;42.608;23.362;2022-10-31T06:20:32;93342.94;;;11.35;75.88
10127;BME280;13080;42.608;23.362;2022-10-31T06:22:59;93342.59;;;11.36;75.74
10127;BME280;13080;42.608;23.362;2022-10-31T06:25:26;93350.13;;;11.43;75.92
10127;BME280;13080;42.608;23.362;2022-10-31T06:27:53;93350.28;;;11.47;75.58
10127;BME280;13080;42.608;23.362;2022-10-31T06:30:20;93352.28;;;11.50;75.22
10127;BME280;13080;42.608;23.362;2022-10-31T06:32:47;93366.53;;;11.62;74.92
10127;BME280;13080;42.608;23.362;2022-10-31T06:35:16;93370.38;;;11.82;74.48
10127;BME280;13080;42.608;23.362;2022-10-31T06:37:43;93370.38;;;11.82;74.32
10127;BME280;13080;42.608;23.362;2022-10-31T06:40:16;93365.78;;;11.83;75.03
10127;BME280;13080;42.608;23.362;2022-10-31T06:42:43;93373.97;;;11.86;75.17
10127;BME280;13080;42.608;23.362;2022-10-31T06:45:10;93370.00;;;11.93;75.19
10127;BME280;13080;42.608;23.362;2022-10-31T06:47:36;93374.31;;;12.06;74.69
10127;BME280;13080;42.608;23.362;2022-10-31T06:50:04;93376.09;;;12.02;75.11
10127;BME280;13080;42.608;23.362;2022-10-31T06:52:32;93366.19;;;12.02;74.89
10127;BME280;13080;42.608;23.362;2022-10-31T06:54:59;93368.97;;;12.06;74.73
10127;BME280;13080;42.608;23.362;2022-10-31T06:57:25;93370.09;;;12.26;73.91
10127;BME280;13080;42.608;23.362;2022-10-31T06:59:52;93376.78;;;12.20;74.57
10127;BME280;13080;42.608;23.362;2022-10-31T07:02:19;93372.44;;;12.27;74.12
10127;BME280;13080;42.608;23.362;2022-10-31T07:04:45;93381.06;;;12.54;72.60
10127;BME280;13080;42.608;23.362;2022-10-31T07:07:12;93377.84;;;12.61;72.63
10127;BME280;13080;42.608;23.362;2022-10-31T07:09:40;93372.44;;;12.48;73.41
10127;BME280;13080;42.608;23.362;2022-10-31T07:12:07;93371.41;;;12.41;73.80
10127;BME280;13080;42.608;23.362;2022-10-31T07:14:34;93369.56;;;12.54;73.21
10127;BME280;13080;42.608;23.362;2022-10-31T07:17:01;93378.53;;;12.58;73.50
10127;BME280;13080;42.608;23.362;2022-10-31T07:19:27;93370.22;;;12.84;71.87
10127;BME280;13080;42.608;23.362;2022-10-31T07:21:54;93370.72;;;12.98;71.55
10127;BME280;13080;42.608;23.362;2022-10-31T07:24:21;93365.53;;;13.14;70.83
10127;BME280;13080;42.608;23.362;2022-10-31T07:26:49;93363.94;;;13.01;71.71
10127;BME280;13080;42.608;23.362;2022-10-31T07:29:16;93347.50;;;13.02;71.78
10127;BME280;13080;42.608;23.362;2022-10-31T07:31:45;93356.47;;;13.19;71.25
10127;BME280;13080;42.608;23.362;2022-10-31T07:34:12;93346.91;;;13.42;70.65
10127;BME280;13080;42.608;23.362;2022-10-31T07:36:38;93349.50;;;13.51;69.81
10127;BME280;13080;42.608;23.362;2022-10-31T07:39:05;93351.50;;;13.66;69.03
10127;BME280;13080;42.608;23.362;2022-10-31T07:41:32;93352.19;;;13.63;69.42
10127;BME280;13080;42.608;23.362;2022-10-31T07:44:00;93357.41;;;13.72;68.84
10127;BME280;13080;42.608;23.362;2022-10-31T07:46:27;93360.34;;;13.67;69.25
10127;BME280;13080;42.608;23.362;2022-10-31T07:48:53;93371.41;;;13.78;69.16
10127;BME280;13080;42.608;23.362;2022-10-31T07:51:20;93360.78;;;13.81;68.74
10127;BME280;13080;42.608;23.362;2022-10-31T07:53:48;93366.00;;;13.90;68.39
10127;BME280;13080;42.608;23.362;2022-10-31T07:56:15;93359.66;;;13.95;67.47
10127;BME280;13080;42.608;23.362;2022-10-31T07:58:42;93361.56;;;13.82;68.43
10127;BME280;13080;42.608;23.362;2022-10-31T08:01:10;93366.94;;;13.82;68.38
10127;BME280;13080;42.608;23.362;2022-10-31T08:03:37;93376.88;;;13.93;67.92
10127;BME280;13080;42.608;23.362;2022-10-31T08:06:04;93369.38;;;13.87;67.97
10127;BME280;13080;42.608;23.362;2022-10-31T08:08:30;93366.56;;;13.83;67.89
10127;BME280;13080;42.608;23.362;2022-10-31T08:10:58;93368.47;;;13.95;67.91
10127;BME280;13080;42.608;23.362;2022-10-31T08:13:24;93366.69;;;13.99;67.72
10127;BME280;13080;42.608;23.362;2022-10-31T08:15:51;93364.31;;;14.10;67.16
10127;BME280;13080;42.608;23.362;2022-10-31T08:18:20;93364.63;;;14.21;67.23
10127;BME280;13080;42.608;23.362;2022-10-31T08:20:49;93362.84;;;14.25;67.60
10127;BME280;13080;42.608;23.362;2022-10-31T08:23:15;93364.94;;;14.31;66.66
10127;BME280;13080;42.608;23.362;2022-10-31T08:25:42;93371.16;;;14.48;65.62
10127;BME280;13080;42.608;23.362;2022-10-31T08:28:10;93373.97;;;14.51;65.71
10127;BME280;13080;42.608;23.362;2022-10-31T08:30:38;93377.94;;;14.70;65.23
10127;BME280;13080;42.608;23.362;2022-10-31T08:33:07;93374.56;;;14.73;64.74
10127;BME280;13080;42.608;23.362;2022-10-31T08:35:37;93372.53;;;14.82;65.02
10127;BME280;13080;42.608;23.362;2022-10-31T08:38:03;93367.19;;;14.98;64.32
10127;BME280;13080;42.608;23.362;2022-10-31T08:40:32;93369.16;;;14.85;65.08
10127;BME280;13080;42.608;23.362;2022-10-31T08:43:01;93373.78;;;15.01;63.89
10127;BME280;13080;42.608;23.362;2022-10-31T08:45:30;93365.41;;;15.18;63.45
10127;BME280;13080;42.608;23.362;2022-10-31T08:47:57;93367.56;;;15.12;64.52
10127;BME280;13080;42.608;23.362;2022-10-31T08:50:25;93366.16;;;15.03;63.37
10127;BME280;13080;42.608;23.362;2022-10-31T08:52:58;93373.38;;;15.14;63.71
10127;BME280;13080;42.608;23.362;2022-10-31T08:55:25;93372.88;;;15.25;63.91
10127;BME280;13080;42.608;23.362;2022-10-31T08:57:54;93367.06;;;15.38;63.14
10127;BME280;13080;42.608;23.362;2022-10-31T09:00:21;93374.72;;;15.36;62.94
10127;BME280;13080;42.608;23.362;2022-10-31T09:02:54;93367.06;;;15.38;63.26
10127;BME280;13080;42.608;23.362;2022-10-31T09:05:21;93367.84;;;15.55;63.00
10127;BME280;13080;42.608;23.362;2022-10-31T09:07:48;93369.44;;;15.72;62.18
10127;BME280;13080;42.608;23.362;2022-10-31T09:10:16;93360.66;;;15.75;62.27
10127;BME280;13080;42.608;23.362;2022-10-31T09:12:43;93364.66;;;15.81;62.60
10127;BME280;13080;42.608;23.362;2022-10-31T09:15:10;93368.88;;;15.98;61.32
10127;BME280;13080;42.608;23.362;2022-10-31T09:17:36;93362.56;;;15.90;61.08
10127;BME280;13080;42.608;23.362;2022-10-31T09:20:04;93376.19;;;15.97;61.16
10127;BME280;13080;42.608;23.362;2022-10-31T09:22:31;93368.97;;;16.02;61.46
10127;BME280;13080;42.608;23.362;2022-10-31T09:24:57;93371.47;;;16.10;60.65
10127;BME280;13080;42.608;23.362;2022-10-31T09:27:25;93373.34;;;16.26;60.35
10127;BME280;13080;42.608;23.362;2022-10-31T09:29:52;93376.84;;;16.46;58.84
10127;BME280;13080;42.608;23.362;2022-10-31T09:32:19;93372.50;;;16.41;58.72
10127;BME280;13080;42.608;23.362;2022-10-31T09:34:45;93374.78;;;16.39;59.20
10127;BME280;13080;42.608;23.362;2022-10-31T09:37:12;93373.81;;;16.67;58.06
10127;BME280;13080;42.608;23.362;2022-10-31T09:39:39;93375.78;;;16.70;57.05
10127;BME280;13080;42.608;23.362;2022-10-31T09:42:31;93368.44;;;16.67;58.62
10127;BME280;13080;42.608;23.362;2022-10-31T09:45:06;93366.47;;;16.83;57.73
10127;BME280;13080;42.608;23.362;2022-10-31T09:47:43;93371.34;;;16.97;57.57
10127;BME280;13080;42.608;23.362;2022-10-31T09:50:18;93364.63;;;17.30;55.69
10127;BME280;13080;42.608;23.362;2022-10-31T09:52:53;93365.25;;;17.42;54.71
10127;BME280;13080;42.608;23.362;2022-10-31T09:55:29;93365.34;;;17.50;54.19
10127;BME280;13080;42.608;23.362;2022-10-31T09:57:59;93370.41;;;17.51;53.39
10127;BME280;13080;42.608;23.362;2022-10-31T10:00:27;93367.38;;;17.56;53.93
10127;BME280;13080;42.608;23.362;2022-10-31T10:03:00;93359.34;;;17.60;52.68
10127;BME280;13080;42.608;23.362;2022-10-31T10:05:32;93361.44;;;17.70;52.29
10127;BME280;13080;42.608;23.362;2022-10-31T10:08:03;93355.03;;;17.78;52.33
10127;BME280;13080;42.608;23.362;2022-10-31T10:10:44;93349.97;;;17.77;52.58
10127;BME280;13080;42.608;23.362;2022-10-31T10:13:28;93349.69;;;17.82;51.77
10127;BME280;13080;42.608;23.362;2022-10-31T10:16:09;93344.41;;;17.89;51.48
10127;BME280;13080;42.608;23.362;2022-10-31T10:18:48;93350.97;;;18.15;50.58
10127;BME280;13080;42.608;23.362;2022-10-31T10:21:27;93345.56;;;18.15;51.30
10127;BME280;13080;42.608;23.362;2022-10-31T10:24:08;93348.84;;;18.31;50.08
10127;BME280;13080;42.608;23.362;2022-10-31T10:26:38;93339.84;;;18.20;50.33
10127;BME280;13080;42.608;23.362;2022-10-31T10:29:29;93339.81;;;18.16;51.25
10127;BME280;13080;42.608;23.362;2022-10-31T10:31:59;93336.94;;;18.36;49.07
10127;BME280;13080;42.608;23.362;2022-10-31T10:34:31;93339.16;;;18.26;50.77
10127;BME280;13080;42.608;23.362;2022-10-31T10:37:01;93332.78;;;18.42;49.57
10127;BME280;13080;42.608;23.362;2022-10-31T10:39:32;93324.75;;;18.45;49.37
10127;BME280;13080;42.608;23.362;2022-10-31T10:42:09;93319.69;;;18.44;48.91
10127;BME280;13080;42.608;23.362;2022-10-31T10:44:57;93316.22;;;18.43;49.83
10127;BME280;13080;42.608;23.362;2022-10-31T10:47:43;93323.38;;;18.62;49.36
10127;BME280;13080;42.608;23.362;2022-10-31T10:50:14;93319.63;;;18.70;48.42
10127;BME280;13080;42.608;23.362;2022-10-31T10:52:50;93325.47;;;18.76;48.56
10127;BME280;13080;42.608;23.362;2022-10-31T10:55:26;93315.34;;;18.66;49.17
10127;BME280;13080;42.608;23.362;2022-10-31T10:57:58;93313.34;;;18.63;49.19
10127;BME280;13080;42.608;23.362;2022-10-31T11:00:30;93318.31;;;18.57;49.86
10127;BME280;13080;42.608;23.362;2022-10-31T11:02:58;93320.13;;;18.49;50.04
10127;BME280;13080;42.608;23.362;2022-10-31T11:05:30;93315.34;;;18.36;49.52
10127;BME280;13080;42.608;23.362;2022-10-31T11:07:59;93311.94;;;18.42;49.95
10127;BME280;13080;42.608;23.362;2022-10-31T11:10:26;93317.84;;;18.52;49.06
10127;BME280;13080;42.608;23.362;2022-10-31T11:13:14;93304.53;;;18.66;49.39
10127;BME280;13080;42.608;23.362;2022-10-31T11:15:53;93306.56;;;18.76;49.03
10127;BME280;13080;42.608;23.362;2022-10-31T11:18:23;93311.34;;;18.90;48.85
10127;BME280;13080;42.608;23.362;2022-10-31T11:20:52;93297.84;;;18.90;47.36
10127;BME280;13080;42.608;23.362;2022-10-31T11:23:20;93303.38;;;19.01;46.83
10127;BME280;13080;42.608;23.362;2022-10-31T11:25:49;93296.13;;;19.08;47.39
10127;BME280;13080;42.608;23.362;2022-10-31T11:28:17;93289.88;;;19.04;47.62
10127;BME280;13080;42.608;23.362;2022-10-31T11:30:45;93288.34;;;19.07;48.30
10127;BME280;13080;42.608;23.362;2022-10-31T11:33:17;93290.41;;;19.21;47.25
10127;BME280;13080;42.608;23.362;2022-10-31T11:35:45;93286.63;;;19.29;47.30
10127;BME280;13080;42.608;23.362;2022-10-31T11:38:17;93284.34;;;19.35;47.00
10127;BME280;13080;42.608;23.362;2022-10-31T11:40:52;93278.63;;;19.40;47.03
10127;BME280;13080;42.608;23.362;2022-10-31T11:43:20;93282.09;;;19.40;46.26
10127;BME280;13080;42.608;23.362;2022-10-31T11:45:47;93277.84;;;19.43;46.28
10127;BME280;13080;42.608;23.362;2022-10-31T11:48:18;93277.50;;;19.44;46.67
10127;BME280;13080;42.608;23.362;2022-10-31T11:50:51;93275.19;;;19.46;46.75
10127;BME280;13080;42.608;23.362;2022-10-31T11:53:20;93272.47;;;19.46;46.03
10127;BME280;13080;42.608;23.362;2022-10-31T11:55:48;93279.88;;;19.57;45.50
10127;BME280;13080;42.608;23.362;2022-10-31T11:58:26;93270.19;;;19.52;45.39
10127;BME280;13080;42.608;23.362;2022-10-31T12:00:54;93270.94;;;19.49;45.49
10127;BME280;13080;42.608;23.362;2022-10-31T12:03:37;93269.84;;;19.57;46.08
10127;BME280;13080;42.608;23.362;2022-10-31T12:06:11;93266.66;;;19.44;46.26
10127;BME280;13080;42.608;23.362;2022-10-31T12:08:40;93272.81;;;19.41;46.66
10127;BME280;13080;42.608;23.362;2022-10-31T12:11:16;93264.69;;;19.41;46.31
10127;BME280;13080;42.608;23.362;2022-10-31T12:13:53;93271.22;;;19.33;47.48
10127;BME280;13080;42.608;23.362;2022-10-31T12:16:28;93271.22;;;19.37;47.00
10127;BME280;13080;42.608;23.362;2022-10-31T12:19:03;93268.41;;;19.26;46.80
10127;BME280;13080;42.608;23.362;2022-10-31T12:21:53;93272.06;;;19.44;46.16
10127;BME280;13080;42.608;23.362;2022-10-31T12:24:35;93268.88;;;19.31;46.69
10127;BME280;13080;42.608;23.362;2022-10-31T12:27:13;93266.00;;;19.62;46.29
10127;BME280;13080;42.608;23.362;2022-10-31T12:29:52;93274.47;;;19.57;45.18
10127;BME280;13080;42.608;23.362;2022-10-31T12:32:33;93270.97;;;19.52;46.36
10127;BME280;13080;42.608;23.362;2022-10-31T12:35:17;93267.38;;;19.38;45.38
10127;BME280;13080;42.608;23.362;2022-10-31T12:37:57;93265.13;;;19.50;46.02
10127;BME280;13080;42.608;23.362;2022-10-31T12:40:42;93268.28;;;19.56;46.15
10127;BME280;13080;42.608;23.362;2022-10-31T12:43:23;93266.34;;;19.53;45.40
10127;BME280;13080;42.608;23.362;2022-10-31T12:45:55;93261.69;;;19.53;46.45
10127;BME280;13080;42.608;23.362;2022-10-31T12:48:39;93262.91;;;19.63;45.47
10127;BME280;13080;42.608;23.362;2022-10-31T12:51:15;93261.75;;;19.61;45.87
10127;BME280;13080;42.608;23.362;2022-10-31T12:54:05;93259.47;;;19.66;45.29
10127;BME280;13080;42.608;23.362;2022-10-31T12:56:46;93259.03;;;19.61;45.60
10127;BME280;13080;42.608;23.362;2022-10-31T12:59:23;93264.09;;;19.66;45.45
10127;BME280;13080;42.608;23.362;2022-10-31T13:01:55;93260.53;;;19.55;47.03
10127;BME280;13080;42.608;23.362;2022-10-31T13:04:34;93259.44;;;19.63;46.65
10127;BME280;13080;42.608;23.362;2022-10-31T13:07:05;93263.97;;;19.48;45.90